Time;durP1;ratioP1;P1;durP2;ratioP2;P2;SDS_P1;SDS_P2;PMS_P1;PMS_P2;Temp;Humidity;BMP_temperature;BMP_pressure;BME280_temperature;BME280_humidity;BME280_pressure;Samples;Min_cycle;Max_cycle;Signal;HPM_P1;HPM_P2
2022/12/11 00:00:52;;;;;;;67.68;25.02;;;0.80;99.90;;;;;;7379266;32;20481;-60
2022/12/11 00:04:54;;;;;;;74.45;26.23;;;0.80;99.90;;;;;;7370466;32;20126;-60
2022/12/11 00:08:55;;;;;;;67.35;25.40;;;0.80;99.90;;;;;;7377910;32;20497;-61
2022/12/11 00:12:57;;;;;;;75.82;26.42;;;0.90;99.90;;;;;;7378378;32;20106;-59
2022/12/11 00:16:59;;;;;;;72.78;25.00;;;0.80;99.90;;;;;;7372256;32;20193;-60
2022/12/11 00:21:06;;;;;;;73.53;26.33;;;0.80;99.90;;;;;;7374969;32;20099;-59
2022/12/11 00:25:08;;;;;;;76.90;27.65;;;0.80;99.90;;;;;;7375475;32;20194;-59
2022/12/11 00:29:13;;;;;;;81.65;27.35;;;0.80;99.90;;;;;;7376157;32;20149;-59
2022/12/11 00:33:16;;;;;;;74.70;26.35;;;0.90;99.90;;;;;;7380995;32;20164;-59
2022/12/11 00:37:17;;;;;;;78.78;28.73;;;0.80;99.90;;;;;;7372231;32;20202;-59
2022/12/11 00:41:19;;;;;;;83.12;30.08;;;0.80;99.90;;;;;;7381029;32;20544;-59
2022/12/11 00:45:21;;;;;;;75.97;28.10;;;0.80;99.90;;;;;;7371312;32;20183;-60
2022/12/11 00:49:23;;;;;;;72.65;27.45;;;0.80;99.90;;;;;;7378380;32;20102;-59
2022/12/11 00:53:25;;;;;;;72.12;25.65;;;0.90;99.90;;;;;;7383226;32;20114;-60
2022/12/11 00:57:26;;;;;;;59.33;23.98;;;0.80;99.90;;;;;;7375931;32;20104;-59
2022/12/11 01:01:28;;;;;;;70.82;26.30;;;0.80;99.90;;;;;;7370592;32;20224;-60
2022/12/11 01:05:31;;;;;;;65.47;24.67;;;0.90;99.90;;;;;;7370620;32;20114;-60
2022/12/11 01:13:53;;;;;;;78.25;26.52;;;0.90;99.90;;;;;;7364853;32;20111;-58
2022/12/11 01:17:55;;;;;;;74.40;26.90;;;0.80;99.90;;;;;;7374944;32;20560;-60
2022/12/11 01:21:57;;;;;;;85.20;28.33;;;0.80;99.90;;;;;;7374970;32;20106;-59
2022/12/11 01:26:07;;;;;;;89.72;29.37;;;0.80;99.90;;;;;;7378384;32;20274;-60
2022/12/11 01:30:09;;;;;;;78.80;29.40;;;0.80;99.90;;;;;;7362495;32;20296;-60
2022/12/11 01:34:11;;;;;;;86.55;28.17;;;0.90;99.90;;;;;;7379896;32;20178;-61
2022/12/11 01:38:12;;;;;;;80.85;28.30;;;0.90;99.90;;;;;;7368882;32;20099;-59
2022/12/11 01:42:18;;;;;;;80.68;27.25;;;0.90;99.90;;;;;;7376488;32;20194;-59
2022/12/11 01:46:20;;;;;;;93.97;30.40;;;0.90;99.90;;;;;;7376847;32;20129;-59
2022/12/11 01:50:22;;;;;;;84.60;29.17;;;0.80;99.90;;;;;;7380854;32;20147;-59
2022/12/11 01:54:26;;;;;;;81.50;28.33;;;0.90;99.90;;;;;;7369007;32;20507;-60
2022/12/11 01:58:35;;;;;;;79.57;28.27;;;0.90;99.90;;;;;;7374795;32;20197;-59
2022/12/11 02:02:36;;;;;;;77.05;27.62;;;0.90;99.90;;;;;;7378847;32;20202;-59
2022/12/11 02:06:46;;;;;;;74.43;24.77;;;0.90;99.90;;;;;;7376211;32;20641;-60
2022/12/11 02:10:57;;;;;;;68.10;25.10;;;0.90;99.90;;;;;;7372588;32;20237;-59
2022/12/11 02:15:11;;;;;;;71.80;24.20;;;0.90;99.90;;;;;;7372444;32;20557;-59
2022/12/11 02:19:20;;;;;;;71.75;25.80;;;1.00;99.90;;;;;;7374783;32;20130;-59
2022/12/11 02:23:30;;;;;;;69.55;26.27;;;1.00;99.90;;;;;;7371257;32;20471;-60
2022/12/11 02:27:36;;;;;;;64.72;24.02;;;0.90;99.90;;;;;;7374265;32;20185;-59
2022/12/11 02:31:49;;;;;;;62.30;23.87;;;0.90;99.90;;;;;;7373254;32;20129;-59
2022/12/11 02:35:51;;;;;;;63.65;24.10;;;1.00;99.90;;;;;;7377149;32;20126;-60
2022/12/11 02:39:55;;;;;;;64.00;24.27;;;0.90;99.90;;;;;;7373582;32;20129;-59
2022/12/11 02:43:57;;;;;;;60.45;24.08;;;0.90;99.90;;;;;;7373456;32;20482;-59
2022/12/11 02:48:04;;;;;;;61.85;23.52;;;0.90;99.90;;;;;;7373753;32;20206;-59
2022/12/11 02:52:10;;;;;;;56.50;22.00;;;0.90;99.90;;;;;;7372284;32;20178;-60
2022/12/11 02:56:35;;;;;;;52.28;21.85;;;0.90;99.90;;;;;;7367661;32;20201;-59
2022/12/11 03:00:37;;;;;;;50.15;21.70;;;0.90;99.90;;;;;;7371969;32;20598;-60
2022/12/11 03:04:39;;;;;;;54.97;21.05;;;0.90;99.90;;;;;;7367740;32;20115;-59
2022/12/11 03:08:41;;;;;;;50.85;20.05;;;0.80;99.90;;;;;;7368470;32;20148;-58
2022/12/11 03:12:46;;;;;;;48.50;20.05;;;0.90;99.90;;;;;;7375857;32;20184;-59
2022/12/11 03:17:03;;;;;;;45.55;20.23;;;0.90;99.90;;;;;;7377788;32;20326;-60
2022/12/11 03:21:13;;;;;;;49.72;20.58;;;0.90;99.90;;;;;;7378744;32;20115;-61
2022/12/11 03:25:20;;;;;;;52.65;19.17;;;0.90;99.90;;;;;;7371659;32;20114;-61
2022/12/11 03:29:33;;;;;;;50.60;20.98;;;0.90;99.90;;;;;;7380777;32;20229;-59
2022/12/11 03:33:40;;;;;;;54.45;20.42;;;0.90;99.90;;;;;;7375199;32;20106;-60
2022/12/11 03:37:43;;;;;;;54.60;20.00;;;1.00;99.90;;;;;;7372216;32;20100;-59
2022/12/11 03:41:47;;;;;;;56.10;22.15;;;1.00;99.90;;;;;;7374108;32;20107;-60
2022/12/11 03:45:50;;;;;;;56.97;22.83;;;1.00;99.90;;;;;;7369956;32;20653;-60
2022/12/11 03:49:54;;;;;;;50.17;21.48;;;1.00;99.90;;;;;;7375685;32;20149;-59
2022/12/11 03:53:56;;;;;;;55.80;21.73;;;1.00;99.90;;;;;;7375006;32;20519;-60
2022/12/11 03:57:58;;;;;;;56.90;21.90;;;1.00;99.90;;;;;;7379903;32;20129;-59
2022/12/11 04:02:00;;;;;;;55.38;21.87;;;1.00;99.90;;;;;;7379022;32;20445;-60
2022/12/11 04:06:02;;;;;;;54.92;22.25;;;1.10;99.90;;;;;;7376631;32;20107;-60
2022/12/11 04:10:05;;;;;;;59.55;21.98;;;1.20;99.90;;;;;;7379143;32;20132;-59
2022/12/11 04:27:13;;;;;;;59.63;22.60;;;1.10;99.90;;;;;;7381324;32;20094;-60
2022/12/11 04:31:18;;;;;;;54.40;22.50;;;1.10;99.90;;;;;;7379434;32;20107;-60
2022/12/11 04:35:20;;;;;;;54.03;22.45;;;1.10;99.90;;;;;;7373695;32;20129;-59
2022/12/11 04:39:22;;;;;;;54.85;22.77;;;1.10;99.90;;;;;;7371502;32;20485;-60
2022/12/11 04:43:23;;;;;;;55.90;23.33;;;1.20;99.90;;;;;;7368439;32;20129;-59
2022/12/11 04:47:26;;;;;;;48.03;21.48;;;1.10;99.90;;;;;;7380755;32;20135;-60
2022/12/11 04:51:28;;;;;;;50.22;20.98;;;1.10;99.90;;;;;;7380864;32;20111;-60
2022/12/11 04:55:29;;;;;;;48.25;21.12;;;1.00;99.90;;;;;;7384477;32;20194;-60
2022/12/11 04:59:32;;;;;;;46.08;21.70;;;1.00;99.90;;;;;;7377055;32;20487;-60
2022/12/11 05:03:34;;;;;;;46.00;21.98;;;1.00;99.90;;;;;;7374756;32;20702;-60
2022/12/11 05:07:36;;;;;;;47.97;20.98;;;1.10;99.90;;;;;;7369494;32;20111;-60
2022/12/11 05:11:38;;;;;;;47.30;21.17;;;1.10;99.90;;;;;;7377235;32;20107;-60
2022/12/11 05:15:40;;;;;;;49.80;21.45;;;1.10;99.90;;;;;;7365523;32;20202;-60
2022/12/11 05:19:41;;;;;;;49.92;21.35;;;1.10;99.90;;;;;;7378952;32;20103;-59
2022/12/11 05:23:43;;;;;;;48.13;21.00;;;1.20;99.90;;;;;;7371218;32;20106;-59
2022/12/11 05:27:45;;;;;;;45.53;21.10;;;1.20;99.90;;;;;;7378213;32;20561;-61
2022/12/11 05:31:47;;;;;;;49.60;20.88;;;1.10;99.90;;;;;;7375179;32;20512;-59
2022/12/11 05:35:48;;;;;;;47.92;20.45;;;1.10;99.90;;;;;;7376189;32;20133;-59
2022/12/11 05:39:50;;;;;;;44.63;20.52;;;1.10;99.90;;;;;;7379611;32;20224;-60
2022/12/11 05:43:52;;;;;;;43.58;19.37;;;1.10;99.90;;;;;;7377210;32;20487;-60
2022/12/11 05:47:54;;;;;;;43.17;20.52;;;1.10;99.90;;;;;;7381589;32;20106;-61
2022/12/11 05:51:55;;;;;;;46.22;20.70;;;1.10;99.90;;;;;;7370949;32;20559;-60
2022/12/11 05:56:05;;;;;;;46.00;21.27;;;1.00;99.90;;;;;;7373768;32;20111;-59
2022/12/11 06:00:08;;;;;;;45.28;20.37;;;1.10;99.90;;;;;;7370447;32;20111;-60
2022/12/11 06:04:11;;;;;;;44.35;19.75;;;1.00;99.90;;;;;;7370944;32;20206;-60
2022/12/11 06:08:13;;;;;;;43.75;19.75;;;1.10;99.90;;;;;;7372437;32;20198;-60
2022/12/11 06:12:14;;;;;;;45.38;21.65;;;1.10;99.90;;;;;;7371936;32;20261;-60
2022/12/11 06:16:16;;;;;;;47.38;20.67;;;1.20;99.90;;;;;;7371482;32;20149;-60
2022/12/11 06:20:18;;;;;;;47.92;22.48;;;1.00;99.90;;;;;;7374700;32;20141;-59
2022/12/11 06:24:20;;;;;;;48.20;20.83;;;0.90;99.90;;;;;;7378366;32;20342;-59
2022/12/11 06:28:22;;;;;;;44.88;21.00;;;0.90;99.90;;;;;;7374079;32;20107;-59
2022/12/11 06:32:23;;;;;;;43.72;20.08;;;0.90;99.90;;;;;;7366145;32;20099;-59
2022/12/11 06:36:25;;;;;;;46.28;19.58;;;1.00;99.90;;;;;;7378736;32;20129;-60
2022/12/11 06:40:27;;;;;;;51.37;21.83;;;1.00;99.90;;;;;;7369315;32;20126;-61
2022/12/11 06:44:28;;;;;;;43.45;20.42;;;1.00;99.90;;;;;;7369219;32;20895;-61
2022/12/11 06:48:30;;;;;;;46.65;20.55;;;1.00;99.90;;;;;;7376396;32;20262;-59
2022/12/11 06:52:32;;;;;;;46.47;20.90;;;0.90;99.90;;;;;;7375293;32;20103;-60
2022/12/11 06:56:34;;;;;;;46.95;20.58;;;0.90;99.90;;;;;;7380742;32;20601;-59
2022/12/11 07:00:37;;;;;;;47.15;22.00;;;0.90;99.90;;;;;;7377785;32;20129;-60
2022/12/11 07:04:39;;;;;;;45.53;20.52;;;0.90;99.90;;;;;;7375995;32;20111;-60
2022/12/11 07:08:42;;;;;;;47.15;21.50;;;1.00;99.90;;;;;;7381469;32;20498;-60
2022/12/11 07:12:44;;;;;;;45.00;20.20;;;1.00;99.90;;;;;;7379417;32;20103;-59
2022/12/11 07:16:45;;;;;;;44.30;20.50;;;1.00;99.90;;;;;;7378400;32;20177;-61
2022/12/11 07:20:47;;;;;;;51.72;21.80;;;1.10;99.90;;;;;;7378464;32;20156;-59
2022/12/11 07:24:49;;;;;;;48.00;20.50;;;1.00;99.90;;;;;;7375292;32;20212;-59
2022/12/11 07:28:50;;;;;;;46.15;21.02;;;1.00;99.90;;;;;;7376742;32;20558;-59
2022/12/11 07:32:52;;;;;;;39.45;19.83;;;1.00;99.90;;;;;;7370803;32;20139;-60
2022/12/11 07:36:54;;;;;;;46.33;20.55;;;1.10;99.90;;;;;;7373752;32;20210;-60
2022/12/11 07:40:59;;;;;;;45.63;20.80;;;1.00;99.90;;;;;;7378879;32;20229;-60
2022/12/11 07:45:00;;;;;;;44.22;20.42;;;1.10;99.90;;;;;;7371854;32;20216;-60
2022/12/11 07:49:04;;;;;;;51.45;19.73;;;1.00;99.90;;;;;;7379278;32;20143;-60
2022/12/11 07:53:06;;;;;;;41.90;20.37;;;1.00;99.90;;;;;;7376405;32;20197;-62
2022/12/11 07:57:08;;;;;;;47.05;20.52;;;1.00;99.90;;;;;;7380540;32;20106;-61
2022/12/11 08:01:17;;;;;;;42.53;19.42;;;1.00;99.90;;;;;;7379465;32;20136;-61
2022/12/11 08:05:19;;;;;;;42.55;20.23;;;1.00;99.90;;;;;;7372913;32;20103;-61
2022/12/11 08:09:21;;;;;;;42.62;20.05;;;1.10;99.90;;;;;;7371429;32;20224;-61
2022/12/11 08:13:23;;;;;;;42.55;20.73;;;1.10;99.90;;;;;;7378989;32;20225;-60
2022/12/11 08:17:24;;;;;;;53.50;24.63;;;1.10;99.90;;;;;;7380779;32;20117;-61
2022/12/11 08:21:32;;;;;;;44.85;20.90;;;1.00;99.90;;;;;;7382847;32;20901;-60
2022/12/11 08:25:34;;;;;;;44.38;20.50;;;1.10;99.90;;;;;;7380487;32;20230;-60
2022/12/11 08:29:36;;;;;;;44.22;20.65;;;1.10;99.90;;;;;;7380849;32;20106;-61
2022/12/11 08:33:39;;;;;;;39.53;19.95;;;1.20;99.90;;;;;;7375925;32;20145;-60
2022/12/11 08:37:41;;;;;;;41.22;20.58;;;1.10;99.90;;;;;;7376208;32;20217;-60
2022/12/11 08:41:43;;;;;;;41.45;20.08;;;1.10;99.90;;;;;;7377498;32;21388;-60
2022/12/11 08:45:45;;;;;;;38.67;18.77;;;1.10;99.90;;;;;;7374741;32;20110;-62
2022/12/11 08:49:47;;;;;;;38.65;19.42;;;1.20;99.90;;;;;;7370090;32;21545;-61
2022/12/11 08:53:50;;;;;;;35.80;17.27;;;1.20;99.90;;;;;;7377539;32;20450;-60
2022/12/11 08:57:51;;;;;;;34.65;18.15;;;1.20;99.90;;;;;;7371710;32;20220;-60
2022/12/11 09:01:54;;;;;;;37.45;18.98;;;1.20;99.90;;;;;;7374174;32;20140;-61
2022/12/11 09:05:56;;;;;;;39.78;18.77;;;1.20;99.90;;;;;;7372221;32;20145;-60
2022/12/11 09:09:57;;;;;;;40.85;19.20;;;1.30;99.90;;;;;;7374842;32;20186;-60
2022/12/11 09:14:00;;;;;;;39.67;18.02;;;1.30;99.90;;;;;;7376008;32;20116;-61
2022/12/11 09:18:08;;;;;;;38.53;18.20;;;1.30;99.90;;;;;;7374632;32;20170;-62
2022/12/11 09:22:11;;;;;;;38.13;17.75;;;1.30;99.90;;;;;;7371439;32;20129;-59
2022/12/11 09:26:16;;;;;;;38.00;17.60;;;1.30;99.90;;;;;;7375759;32;20106;-59
2022/12/11 09:30:18;;;;;;;34.38;17.40;;;1.40;99.90;;;;;;7369463;32;20098;-59
2022/12/11 09:34:19;;;;;;;31.37;16.02;;;1.30;99.90;;;;;;7378620;32;20123;-59
2022/12/11 09:38:30;;;;;;;35.17;16.90;;;1.30;99.90;;;;;;7376609;32;20123;-59
2022/12/11 09:42:53;;;;;;;33.88;16.73;;;1.30;99.90;;;;;;7380523;32;20107;-59
2022/12/11 09:46:57;;;;;;;30.95;15.60;;;1.30;99.90;;;;;;7371063;32;20182;-62
2022/12/11 09:51:13;;;;;;;31.80;14.57;;;1.40;99.90;;;;;;7369183;32;20178;-59
2022/12/11 09:55:23;;;;;;;32.72;17.30;;;1.40;99.90;;;;;;7374203;32;20107;-60
2022/12/11 09:59:49;;;;;;;33.55;16.00;;;1.30;99.90;;;;;;7377819;32;20129;-63
2022/12/11 10:04:04;;;;;;;28.95;15.95;;;1.40;99.90;;;;;;7373850;32;20542;-60
2022/12/11 10:08:12;;;;;;;31.55;16.58;;;1.40;99.90;;;;;;7377630;32;20138;-62
2022/12/11 10:12:22;;;;;;;35.58;16.25;;;1.30;99.90;;;;;;7370684;32;20161;-59
2022/12/11 10:16:39;;;;;;;31.95;14.55;;;1.40;99.90;;;;;;7373395;32;20194;-60
2022/12/11 10:20:43;;;;;;;29.48;15.00;;;1.40;99.90;;;;;;7369159;32;20628;-60
2022/12/11 10:25:06;;;;;;;26.55;14.18;;;1.30;99.90;;;;;;7368179;32;20127;-60
2022/12/11 10:29:14;;;;;;;32.03;14.33;;;1.30;99.90;;;;;;7372868;32;20194;-61
2022/12/11 10:33:48;;;;;;;33.70;16.00;;;1.40;99.90;;;;;;7370645;32;20232;-61
2022/12/11 10:37:54;;;;;;;30.98;14.73;;;1.40;99.90;;;;;;7381498;32;20111;-60
2022/12/11 10:41:56;;;;;;;32.53;14.65;;;1.40;99.90;;;;;;7384860;32;20103;-60
2022/12/11 10:45:58;;;;;;;31.60;15.23;;;1.50;99.90;;;;;;7384064;32;20690;-60
2022/12/11 10:50:02;;;;;;;31.05;14.40;;;1.50;99.90;;;;;;7380311;32;20233;-60
2022/12/11 10:54:32;;;;;;;30.65;15.00;;;1.40;99.90;;;;;;7383627;32;20125;-60
2022/12/11 10:58:38;;;;;;;30.48;14.05;;;1.50;99.90;;;;;;7380007;32;20541;-63
2022/12/11 11:02:43;;;;;;;31.97;15.23;;;1.50;99.90;;;;;;7382975;32;20115;-61
2022/12/11 11:06:46;;;;;;;30.98;14.85;;;1.60;99.90;;;;;;7377057;32;20233;-60
2022/12/11 11:10:56;;;;;;;30.10;14.52;;;1.60;99.90;;;;;;7378935;32;20129;-60
2022/12/11 11:15:03;;;;;;;31.95;15.25;;;1.50;99.90;;;;;;7367468;32;20173;-61
2022/12/11 11:19:06;;;;;;;31.75;15.07;;;1.50;99.90;;;;;;7378704;32;20111;-61
2022/12/11 11:23:13;;;;;;;30.02;14.87;;;1.60;99.90;;;;;;7379499;32;20161;-59
2022/12/11 11:27:43;;;;;;;33.33;16.08;;;1.60;99.90;;;;;;7376582;32;20122;-59
2022/12/11 11:31:45;;;;;;;29.75;15.73;;;1.70;99.90;;;;;;7379153;32;20443;-62
2022/12/11 11:35:59;;;;;;;29.63;15.60;;;1.60;99.90;;;;;;7377881;32;20104;-61
2022/12/11 11:40:27;;;;;;;31.52;16.55;;;1.60;99.90;;;;;;7377373;32;20505;-60
2022/12/11 11:44:42;;;;;;;28.35;15.07;;;1.60;99.90;;;;;;7381860;32;20125;-61
2022/12/11 11:48:47;;;;;;;32.33;16.92;;;1.70;99.90;;;;;;7378520;32;20133;-62
2022/12/11 11:53:03;;;;;;;25.17;13.55;;;1.70;99.90;;;;;;7379717;32;20174;-62
2022/12/11 11:57:34;;;;;;;23.83;12.75;;;1.70;99.90;;;;;;7369354;32;20107;-60
2022/12/11 12:01:36;;;;;;;24.45;13.15;;;1.70;99.90;;;;;;7376459;32;20122;-61
2022/12/11 12:05:56;;;;;;;28.90;13.60;;;1.50;99.90;;;;;;7379514;32;20122;-60
2022/12/11 12:10:22;;;;;;;27.10;14.00;;;1.40;99.90;;;;;;7376128;32;20133;-59
2022/12/11 12:14:31;;;;;;;24.92;13.73;;;1.30;99.90;;;;;;7373487;32;20249;-60
2022/12/11 12:18:56;;;;;;;28.02;14.95;;;1.50;99.90;;;;;;7373594;32;20221;-59
2022/12/11 12:22:58;;;;;;;28.90;14.65;;;1.40;99.90;;;;;;7377659;32;20107;-60
2022/12/11 12:27:17;;;;;;;28.75;14.55;;;1.40;99.90;;;;;;7375851;32;20216;-60
2022/12/11 12:32:07;;;;;;;27.15;15.10;;;1.40;99.90;;;;;;7370683;32;20271;-59
2022/12/11 12:36:38;;;;;;;29.42;14.87;;;1.50;99.90;;;;;;7365034;32;20111;-59
2022/12/11 12:40:42;;;;;;;29.58;15.88;;;1.60;99.90;;;;;;7371160;32;20115;-60
2022/12/11 12:45:19;;;;;;;36.10;16.12;;;1.60;99.90;;;;;;7367717;32;20119;-60
2022/12/11 12:49:38;;;;;;;30.73;15.65;;;1.50;99.90;;;;;;7331738;32;20182;-59
2022/12/11 12:53:43;;;;;;;30.25;16.58;;;1.50;99.90;;;;;;7378696;32;20126;-59
2022/12/11 12:57:56;;;;;;;32.38;16.73;;;1.60;99.90;;;;;;7384098;32;20545;-61
2022/12/11 13:02:01;;;;;;;32.72;17.70;;;1.70;99.90;;;;;;7371796;32;20099;-62
2022/12/11 13:06:08;;;;;;;37.85;18.55;;;1.60;99.90;;;;;;7370322;32;20784;-60
2022/12/11 13:10:26;;;;;;;35.25;17.08;;;1.60;99.90;;;;;;7374776;32;20122;-60
2022/12/11 13:14:32;;;;;;;36.17;17.77;;;1.70;99.90;;;;;;7369508;32;20099;-61
2022/12/11 13:18:36;;;;;;;31.27;16.80;;;1.50;99.90;;;;;;7369044;32;20540;-60
2022/12/11 13:22:52;;;;;;;36.72;18.62;;;1.50;99.90;;;;;;7373090;32;20102;-57
2022/12/11 13:26:54;;;;;;;34.85;17.90;;;1.50;99.90;;;;;;7364987;32;20116;-59
2022/12/11 13:31:07;;;;;;;33.03;17.85;;;1.50;99.90;;;;;;7371321;32;20570;-59
2022/12/11 13:35:16;;;;;;;38.30;18.15;;;1.40;99.90;;;;;;7381242;32;20126;-59
2022/12/11 13:39:24;;;;;;;34.28;18.73;;;1.40;99.90;;;;;;7374205;32;20506;-59
2022/12/11 13:43:28;;;;;;;35.03;17.42;;;1.50;99.90;;;;;;7381054;32;20134;-59
2022/12/11 13:47:31;;;;;;;34.13;18.12;;;1.50;99.90;;;;;;7376737;32;20099;-60
2022/12/11 13:51:35;;;;;;;35.53;18.77;;;1.60;99.90;;;;;;7373621;32;20799;-60
2022/12/11 13:55:36;;;;;;;37.13;19.17;;;1.50;99.90;;;;;;7375093;32;21915;-59
2022/12/11 13:59:42;;;;;;;47.55;25.77;;;1.50;99.90;;;;;;7368961;32;20103;-59
2022/12/11 14:03:54;;;;;;;42.20;21.95;;;1.50;99.90;;;;;;7376957;32;20217;-59
2022/12/11 14:08:00;;;;;;;45.33;26.02;;;1.50;99.90;;;;;;7364308;32;20102;-59
2022/12/11 14:12:01;;;;;;;33.35;17.83;;;1.50;99.90;;;;;;7375000;32;20221;-59
2022/12/11 14:16:05;;;;;;;37.75;19.00;;;1.50;99.90;;;;;;7374531;32;20130;-59
2022/12/11 14:20:16;;;;;;;37.55;18.50;;;1.60;99.90;;;;;;7375069;32;20162;-59
2022/12/11 14:24:18;;;;;;;35.33;18.67;;;1.60;99.90;;;;;;7379911;32;20149;-58
2022/12/11 14:28:22;;;;;;;34.20;18.50;;;1.70;99.90;;;;;;7374803;32;20106;-59
2022/12/11 14:32:40;;;;;;;38.00;18.90;;;1.50;99.90;;;;;;7377498;32;20115;-59
2022/12/11 14:36:45;;;;;;;36.13;19.15;;;1.50;99.90;;;;;;7379307;32;20261;-59
2022/12/11 14:40:50;;;;;;;31.05;18.00;;;1.40;99.90;;;;;;7378706;32;20474;-59
2022/12/11 14:44:54;;;;;;;32.00;17.58;;;1.50;99.90;;;;;;7367804;32;20219;-61
2022/12/11 14:49:00;;;;;;;31.87;17.12;;;1.50;99.90;;;;;;7379135;32;20436;-59
2022/12/11 14:53:07;;;;;;;33.80;17.48;;;1.60;99.90;;;;;;7372181;32;20250;-60
2022/12/11 14:57:19;;;;;;;31.17;16.95;;;1.60;99.90;;;;;;7371001;32;20140;-59
2022/12/11 15:01:35;;;;;;;34.30;18.12;;;1.50;99.90;;;;;;7369911;32;20118;-59
2022/12/11 15:05:54;;;;;;;36.58;20.10;;;1.60;99.90;;;;;;7374201;32;20201;-59
2022/12/11 15:09:56;;;;;;;37.58;19.58;;;1.50;99.90;;;;;;7373889;32;20106;-60
2022/12/11 15:14:01;;;;;;;33.05;18.25;;;1.30;99.90;;;;;;7378626;32;20110;-60
2022/12/11 15:18:06;;;;;;;34.97;20.65;;;1.30;99.90;;;;;;7373708;32;20781;-59
2022/12/11 15:22:14;;;;;;;33.97;18.77;;;1.20;99.90;;;;;;7382669;32;20102;-60
2022/12/11 15:26:15;;;;;;;30.98;17.62;;;1.20;99.90;;;;;;7383211;32;20482;-62
2022/12/11 15:30:18;;;;;;;32.08;18.30;;;1.20;99.90;;;;;;7374904;32;20107;-60
2022/12/11 15:34:23;;;;;;;31.23;18.65;;;1.20;99.90;;;;;;7381040;32;20111;-60
2022/12/11 15:38:38;;;;;;;34.58;18.98;;;1.20;99.90;;;;;;7365923;32;20124;-60
2022/12/11 15:42:41;;;;;;;30.77;17.77;;;1.10;99.90;;;;;;7376135;32;20141;-59
2022/12/11 15:46:42;;;;;;;38.17;19.40;;;1.20;99.90;;;;;;7373477;32;20253;-60
2022/12/11 15:50:44;;;;;;;30.50;17.70;;;1.10;99.90;;;;;;7382055;32;20140;-60
2022/12/11 15:54:46;;;;;;;36.15;19.60;;;1.10;99.90;;;;;;7376746;32;20106;-61
2022/12/11 15:58:48;;;;;;;37.70;21.08;;;1.10;99.90;;;;;;7374420;32;20205;-60
2022/12/11 16:02:50;;;;;;;33.67;18.92;;;1.10;99.90;;;;;;7376172;32;20421;-60
2022/12/11 16:06:53;;;;;;;36.33;19.90;;;1.10;99.90;;;;;;7380814;32;20323;-60
2022/12/11 16:10:55;;;;;;;37.08;19.27;;;1.20;99.90;;;;;;7376242;32;20481;-60
2022/12/11 16:14:57;;;;;;;38.05;21.00;;;1.10;99.90;;;;;;7380061;32;20107;-60
2022/12/11 16:18:59;;;;;;;39.60;22.20;;;1.10;99.90;;;;;;7374881;32;20110;-59
2022/12/11 16:23:01;;;;;;;38.88;20.48;;;1.10;99.90;;;;;;7381888;32;20115;-59
2022/12/11 16:27:04;;;;;;;37.30;21.25;;;1.10;99.90;;;;;;7377332;32;20562;-59
2022/12/11 16:31:13;;;;;;;46.42;26.87;;;1.00;99.90;;;;;;7374935;32;20137;-58
2022/12/11 16:35:15;;;;;;;38.30;22.23;;;1.10;99.90;;;;;;7379201;32;20130;-60
2022/12/11 16:39:17;;;;;;;35.60;19.90;;;1.10;99.90;;;;;;7377455;32;20182;-59
2022/12/11 16:43:18;;;;;;;35.80;19.33;;;1.10;99.90;;;;;;7374751;32;20582;-59
2022/12/11 16:47:20;;;;;;;38.80;20.02;;;1.10;99.90;;;;;;7371234;32;20182;-59
2022/12/11 16:51:22;;;;;;;39.70;20.37;;;1.10;99.90;;;;;;7369319;32;20198;-59
2022/12/11 16:55:23;;;;;;;33.20;19.37;;;1.10;99.90;;;;;;7368045;32;20619;-58
2022/12/11 16:59:25;;;;;;;39.15;20.77;;;1.20;99.90;;;;;;7366622;32;20133;-59
2022/12/11 17:03:33;;;;;;;40.38;21.75;;;1.20;99.90;;;;;;7377532;32;20121;-59
2022/12/11 17:07:34;;;;;;;45.22;23.42;;;1.10;99.90;;;;;;7375129;32;20118;-59
2022/12/11 17:11:36;;;;;;;36.00;20.95;;;1.00;99.90;;;;;;7373163;32;20253;-59
2022/12/11 17:15:40;;;;;;;38.25;20.75;;;1.10;99.90;;;;;;7375214;32;20149;-60
2022/12/11 17:19:41;;;;;;;43.40;23.70;;;1.00;99.90;;;;;;7366654;32;20123;-61
2022/12/11 17:23:44;;;;;;;41.72;23.87;;;1.00;99.90;;;;;;7371427;32;20206;-60
2022/12/11 17:27:45;;;;;;;42.55;21.33;;;1.10;99.90;;;;;;7379583;32;20119;-61
2022/12/11 17:31:47;;;;;;;37.53;20.62;;;1.10;99.90;;;;;;7375196;32;20107;-61
2022/12/11 17:35:49;;;;;;;37.38;20.23;;;1.00;99.90;;;;;;7376453;32;20110;-61
2022/12/11 17:39:51;;;;;;;43.10;21.77;;;1.00;99.90;;;;;;7372118;32;20504;-61
2022/12/11 17:43:53;;;;;;;37.75;20.95;;;1.00;99.90;;;;;;7372219;32;20466;-61
2022/12/11 17:47:54;;;;;;;44.72;23.48;;;1.10;99.90;;;;;;7374246;32;20129;-60
2022/12/11 17:51:56;;;;;;;43.70;24.45;;;1.10;99.90;;;;;;7372508;32;20197;-61
2022/12/11 17:56:03;;;;;;;42.42;22.05;;;1.10;99.90;;;;;;7370961;32;20134;-61
2022/12/11 18:00:06;;;;;;;40.90;21.35;;;1.10;99.90;;;;;;7372374;32;20564;-61
2022/12/11 18:04:07;;;;;;;42.35;23.08;;;1.00;99.90;;;;;;7373319;32;20118;-61
2022/12/11 18:08:13;;;;;;;39.85;23.95;;;1.10;99.90;;;;;;7370300;32;20133;-60
2022/12/11 18:12:15;;;;;;;38.33;20.90;;;1.10;99.90;;;;;;7362539;32;20131;-61
2022/12/11 18:16:24;;;;;;;37.38;20.02;;;1.10;99.90;;;;;;7371709;32;20103;-60
2022/12/11 18:20:26;;;;;;;38.67;21.62;;;1.00;99.90;;;;;;7369060;32;20179;-61
2022/12/11 18:24:30;;;;;;;46.67;22.55;;;1.10;99.90;;;;;;7373300;32;20129;-61
2022/12/11 18:28:32;;;;;;;35.90;20.37;;;1.10;99.90;;;;;;7368388;32;20175;-61
2022/12/11 18:32:34;;;;;;;39.50;21.02;;;1.10;99.90;;;;;;7367974;32;20214;-62
2022/12/11 18:36:35;;;;;;;53.42;26.52;;;1.10;99.90;;;;;;7379154;32;20095;-61
2022/12/11 18:40:37;;;;;;;58.80;30.37;;;1.20;99.90;;;;;;7364060;32;20975;-61
2022/12/11 18:44:41;;;;;;;39.95;21.80;;;1.20;99.90;;;;;;7375917;32;20185;-60
2022/12/11 18:48:45;;;;;;;43.97;23.33;;;1.10;99.90;;;;;;7368656;32;20224;-61
2022/12/11 18:52:52;;;;;;;39.22;20.12;;;1.20;99.90;;;;;;7368687;32;20699;-61
2022/12/11 18:56:53;;;;;;;34.83;20.42;;;1.10;99.90;;;;;;7380781;32;20241;-61
2022/12/11 19:00:55;;;;;;;46.42;23.75;;;1.10;99.90;;;;;;7376675;32;20110;-62
2022/12/11 19:04:57;;;;;;;34.72;19.15;;;1.10;99.90;;;;;;7378393;32;20138;-61
2022/12/11 19:08:59;;;;;;;36.90;19.33;;;1.10;99.90;;;;;;7379228;32;20198;-61
2022/12/11 19:13:01;;;;;;;35.97;18.65;;;1.10;99.90;;;;;;7372799;32;20131;-61
2022/12/11 19:17:02;;;;;;;34.25;18.90;;;1.00;99.90;;;;;;7372375;32;20138;-58
2022/12/11 19:21:08;;;;;;;36.10;19.15;;;0.90;99.90;;;;;;7380219;32;20210;-60
2022/12/11 19:25:13;;;;;;;35.13;18.92;;;1.00;99.90;;;;;;7371359;32;20099;-62
2022/12/11 19:29:24;;;;;;;36.70;18.12;;;1.00;99.90;;;;;;7373892;32;20685;-60
2022/12/11 19:33:26;;;;;;;43.08;22.40;;;0.90;99.90;;;;;;7374959;32;20142;-61
2022/12/11 19:37:27;;;;;;;36.17;19.05;;;0.90;99.90;;;;;;7379911;32;20212;-59
2022/12/11 19:41:30;;;;;;;35.20;19.65;;;0.80;99.90;;;;;;7382520;32;20134;-58
2022/12/11 19:45:31;;;;;;;34.97;19.52;;;0.80;99.90;;;;;;7379539;32;20111;-58
2022/12/11 19:49:33;;;;;;;37.65;20.35;;;0.90;99.90;;;;;;7381052;32;20627;-59
2022/12/11 19:53:35;;;;;;;37.10;20.25;;;0.90;99.90;;;;;;7374401;32;21064;-60
2022/12/11 19:57:37;;;;;;;38.78;20.90;;;0.90;99.90;;;;;;7375565;32;20240;-59
2022/12/11 20:01:39;;;;;;;40.90;20.90;;;0.90;99.90;;;;;;7383592;32;20817;-59
2022/12/11 20:05:41;;;;;;;40.10;21.40;;;0.80;99.90;;;;;;7373208;32;20649;-59
2022/12/11 20:09:42;;;;;;;46.83;23.90;;;0.80;99.90;;;;;;7377635;32;21122;-61
2022/12/11 20:13:45;;;;;;;44.85;21.40;;;0.80;99.90;;;;;;7374413;32;20206;-60
2022/12/11 20:17:54;;;;;;;39.97;21.15;;;0.70;99.90;;;;;;7370622;32;20632;-60
2022/12/11 20:21:57;;;;;;;50.12;23.70;;;0.80;99.90;;;;;;7373698;32;20746;-59
2022/12/11 20:26:24;;;;;;;50.50;24.77;;;0.90;99.90;;;;;;7370691;32;20265;-59
2022/12/11 20:30:25;;;;;;;40.17;20.02;;;1.00;99.90;;;;;;7371881;32;20127;-59
2022/12/11 20:34:27;;;;;;;40.10;20.33;;;0.80;99.90;;;;;;7372360;32;20213;-60
2022/12/11 20:38:29;;;;;;;40.20;21.87;;;0.90;99.90;;;;;;7373975;32;20126;-59
2022/12/11 20:42:35;;;;;;;49.40;27.00;;;0.90;99.90;;;;;;7375144;32;20194;-60
2022/12/11 20:46:37;;;;;;;43.50;22.13;;;1.00;99.90;;;;;;7381370;32;20830;-59
2022/12/11 20:50:39;;;;;;;43.53;23.02;;;1.00;99.90;;;;;;7371996;32;20561;-60
2022/12/11 20:54:40;;;;;;;41.30;21.33;;;1.00;99.90;;;;;;7371797;32;20099;-59
2022/12/11 20:58:43;;;;;;;41.58;21.23;;;0.90;99.90;;;;;;7373699;32;20125;-61
2022/12/11 21:02:45;;;;;;;40.42;21.62;;;0.90;99.90;;;;;;7372351;32;20215;-62
2022/12/11 21:06:54;;;;;;;37.30;20.48;;;0.90;99.90;;;;;;7382855;32;20130;-60
2022/12/11 21:10:56;;;;;;;44.40;20.20;;;0.90;99.90;;;;;;7374915;32;20119;-60
2022/12/11 21:14:57;;;;;;;46.78;21.77;;;0.90;99.90;;;;;;7375937;32;21906;-60